sensor_id;sensor_type;location;lat;lon;timestamp;P1;durP1;ratioP1;P2;durP2;ratioP2
18505;SDS011;9382;53.242;10.438;2022-10-16T00:00:48;7.67;;;6.13;;
18505;SDS011;9382;53.242;10.438;2022-10-16T00:03:15;6.83;;;5.33;;
18505;SDS011;9382;53.242;10.438;2022-10-16T00:05:42;6.77;;;5.43;;
18505;SDS011;9382;53.242;10.438;2022-10-16T00:08:10;6.27;;;5.33;;
18505;SDS011;9382;53.242;10.438;2022-10-16T00:10:38;8.27;;;5.57;;
18505;SDS011;9382;53.242;10.438;2022-10-16T00:13:05;7.00;;;4.93;;
18505;SDS011;9382;53.242;10.438;2022-10-16T00:15:34;5.90;;;5.30;;
18505;SDS011;9382;53.242;10.438;2022-10-16T00:18:04;6.60;;;5.40;;
18505;SDS011;9382;53.242;10.438;2022-10-16T00:20:33;6.80;;;5.33;;
18505;SDS011;9382;53.242;10.438;2022-10-16T00:23:01;8.70;;;5.60;;
18505;SDS011;9382;53.242;10.438;2022-10-16T00:25:28;6.63;;;5.27;;
18505;SDS011;9382;53.242;10.438;2022-10-16T00:27:57;7.53;;;5.10;;
18505;SDS011;9382;53.242;10.438;2022-10-16T00:30:24;6.33;;;5.40;;
18505;SDS011;9382;53.242;10.438;2022-10-16T00:32:53;7.03;;;5.43;;
18505;SDS011;9382;53.242;10.438;2022-10-16T00:35:20;6.30;;;5.70;;
18505;SDS011;9382;53.242;10.438;2022-10-16T00:37:47;6.97;;;5.20;;
18505;SDS011;9382;53.242;10.438;2022-10-16T00:40:14;8.47;;;5.77;;
18505;SDS011;9382;53.242;10.438;2022-10-16T00:42:41;7.73;;;5.20;;
18505;SDS011;9382;53.242;10.438;2022-10-16T00:45:08;6.93;;;5.50;;
18505;SDS011;9382;53.242;10.438;2022-10-16T00:47:36;7.77;;;5.30;;
18505;SDS011;9382;53.242;10.438;2022-10-16T00:50:09;6.07;;;5.00;;
18505;SDS011;9382;53.242;10.438;2022-10-16T00:52:39;8.40;;;5.77;;
18505;SDS011;9382;53.242;10.438;2022-10-16T00:55:10;6.90;;;5.17;;
18505;SDS011;9382;53.242;10.438;2022-10-16T00:57:37;4.87;;;4.47;;
18505;SDS011;9382;53.242;10.438;2022-10-16T01:00:05;5.10;;;4.60;;
18505;SDS011;9382;53.242;10.438;2022-10-16T01:02:33;7.90;;;4.90;;
18505;SDS011;9382;53.242;10.438;2022-10-16T01:05:00;5.83;;;4.17;;
18505;SDS011;9382;53.242;10.438;2022-10-16T01:07:33;4.93;;;4.40;;
18505;SDS011;9382;53.242;10.438;2022-10-16T01:10:09;7.20;;;3.63;;
18505;SDS011;9382;53.242;10.438;2022-10-16T01:12:45;5.93;;;4.57;;
18505;SDS011;9382;53.242;10.438;2022-10-16T01:15:16;4.30;;;3.87;;
18505;SDS011;9382;53.242;10.438;2022-10-16T01:17:48;5.80;;;3.90;;
18505;SDS011;9382;53.242;10.438;2022-10-16T01:20:21;5.57;;;3.70;;
18505;SDS011;9382;53.242;10.438;2022-10-16T01:23:06;4.27;;;3.33;;
18505;SDS011;9382;53.242;10.438;2022-10-16T01:25:59;3.70;;;3.40;;
18505;SDS011;9382;53.242;10.438;2022-10-16T01:28:38;4.60;;;3.33;;
18505;SDS011;9382;53.242;10.438;2022-10-16T01:31:10;4.27;;;3.00;;
18505;SDS011;9382;53.242;10.438;2022-10-16T01:33:41;5.60;;;3.03;;
18505;SDS011;9382;53.242;10.438;2022-10-16T01:36:12;4.07;;;3.07;;
18505;SDS011;9382;53.242;10.438;2022-10-16T01:38:42;5.13;;;3.20;;
18505;SDS011;9382;53.242;10.438;2022-10-16T01:41:13;7.43;;;3.27;;
18505;SDS011;9382;53.242;10.438;2022-10-16T01:43:46;5.00;;;3.00;;
18505;SDS011;9382;53.242;10.438;2022-10-16T01:46:17;4.07;;;2.70;;
18505;SDS011;9382;53.242;10.438;2022-10-16T01:48:46;5.03;;;3.00;;
18505;SDS011;9382;53.242;10.438;2022-10-16T01:51:14;3.13;;;2.53;;
18505;SDS011;9382;53.242;10.438;2022-10-16T01:53:43;5.00;;;3.00;;
18505;SDS011;9382;53.242;10.438;2022-10-16T01:56:14;7.70;;;2.50;;
18505;SDS011;9382;53.242;10.438;2022-10-16T01:58:44;3.67;;;2.43;;
18505;SDS011;9382;53.242;10.438;2022-10-16T02:01:16;4.23;;;2.50;;
18505;SDS011;9382;53.242;10.438;2022-10-16T02:03:46;3.60;;;2.73;;
18505;SDS011;9382;53.242;10.438;2022-10-16T02:06:19;3.67;;;2.70;;
18505;SDS011;9382;53.242;10.438;2022-10-16T02:08:46;2.70;;;2.50;;
18505;SDS011;9382;53.242;10.438;2022-10-16T02:11:13;2.60;;;2.40;;
18505;SDS011;9382;53.242;10.438;2022-10-16T02:13:41;5.00;;;2.57;;
18505;SDS011;9382;53.242;10.438;2022-10-16T02:16:12;4.00;;;2.40;;
18505;SDS011;9382;53.242;10.438;2022-10-16T02:18:40;2.67;;;2.33;;
18505;SDS011;9382;53.242;10.438;2022-10-16T02:21:10;2.67;;;2.20;;
18505;SDS011;9382;53.242;10.438;2022-10-16T02:23:43;2.40;;;2.20;;
18505;SDS011;9382;53.242;10.438;2022-10-16T02:26:17;3.67;;;2.20;;
18505;SDS011;9382;53.242;10.438;2022-10-16T02:28:53;2.73;;;2.10;;
18505;SDS011;9382;53.242;10.438;2022-10-16T02:31:27;2.77;;;2.03;;
18505;SDS011;9382;53.242;10.438;2022-10-16T02:33:56;2.37;;;2.10;;
18505;SDS011;9382;53.242;10.438;2022-10-16T02:36:25;2.37;;;2.10;;
18505;SDS011;9382;53.242;10.438;2022-10-16T02:38:53;3.37;;;2.20;;
18505;SDS011;9382;53.242;10.438;2022-10-16T02:41:21;2.70;;;2.10;;
18505;SDS011;9382;53.242;10.438;2022-10-16T02:43:49;4.67;;;2.10;;
18505;SDS011;9382;53.242;10.438;2022-10-16T02:46:16;2.67;;;2.03;;
18505;SDS011;9382;53.242;10.438;2022-10-16T02:48:45;4.63;;;2.23;;
18505;SDS011;9382;53.242;10.438;2022-10-16T02:51:12;3.87;;;2.13;;
18505;SDS011;9382;53.242;10.438;2022-10-16T02:53:39;5.23;;;2.10;;
18505;SDS011;9382;53.242;10.438;2022-10-16T02:56:06;2.47;;;1.90;;
18505;SDS011;9382;53.242;10.438;2022-10-16T02:58:33;4.17;;;2.20;;
18505;SDS011;9382;53.242;10.438;2022-10-16T03:01:00;3.77;;;1.93;;
18505;SDS011;9382;53.242;10.438;2022-10-16T03:03:26;2.23;;;1.77;;
18505;SDS011;9382;53.242;10.438;2022-10-16T03:05:54;2.27;;;1.93;;
18505;SDS011;9382;53.242;10.438;2022-10-16T03:08:21;3.43;;;2.30;;
18505;SDS011;9382;53.242;10.438;2022-10-16T03:10:50;4.13;;;2.00;;
18505;SDS011;9382;53.242;10.438;2022-10-16T03:13:17;2.93;;;2.10;;
18505;SDS011;9382;53.242;10.438;2022-10-16T03:15:45;3.80;;;1.93;;
18505;SDS011;9382;53.242;10.438;2022-10-16T03:18:12;3.07;;;2.10;;
18505;SDS011;9382;53.242;10.438;2022-10-16T03:20:39;3.57;;;1.90;;
18505;SDS011;9382;53.242;10.438;2022-10-16T03:23:07;5.33;;;2.00;;
18505;SDS011;9382;53.242;10.438;2022-10-16T03:25:34;2.20;;;1.97;;
18505;SDS011;9382;53.242;10.438;2022-10-16T03:28:01;2.70;;;2.17;;
18505;SDS011;9382;53.242;10.438;2022-10-16T03:30:28;3.00;;;2.13;;
18505;SDS011;9382;53.242;10.438;2022-10-16T03:32:55;5.63;;;2.20;;
18505;SDS011;9382;53.242;10.438;2022-10-16T03:35:22;3.13;;;2.10;;
18505;SDS011;9382;53.242;10.438;2022-10-16T03:37:50;1.83;;;1.73;;
18505;SDS011;9382;53.242;10.438;2022-10-16T03:40:18;7.03;;;2.10;;
18505;SDS011;9382;53.242;10.438;2022-10-16T03:42:45;2.57;;;1.77;;
18505;SDS011;9382;53.242;10.438;2022-10-16T03:45:12;3.17;;;1.80;;
18505;SDS011;9382;53.242;10.438;2022-10-16T03:47:39;3.47;;;2.27;;
18505;SDS011;9382;53.242;10.438;2022-10-16T03:50:06;5.27;;;2.37;;
18505;SDS011;9382;53.242;10.438;2022-10-16T03:52:34;4.97;;;2.17;;
18505;SDS011;9382;53.242;10.438;2022-10-16T03:55:00;2.30;;;1.80;;
18505;SDS011;9382;53.242;10.438;2022-10-16T03:57:28;4.30;;;2.10;;
18505;SDS011;9382;53.242;10.438;2022-10-16T03:59:55;5.47;;;2.00;;
18505;SDS011;9382;53.242;10.438;2022-10-16T04:02:22;2.33;;;2.00;;
18505;SDS011;9382;53.242;10.438;2022-10-16T04:04:48;4.63;;;2.50;;
18505;SDS011;9382;53.242;10.438;2022-10-16T04:07:15;5.93;;;2.20;;
18505;SDS011;9382;53.242;10.438;2022-10-16T04:09:42;3.80;;;2.10;;
18505;SDS011;9382;53.242;10.438;2022-10-16T04:12:09;3.10;;;2.10;;
18505;SDS011;9382;53.242;10.438;2022-10-16T04:14:37;5.87;;;2.40;;
18505;SDS011;9382;53.242;10.438;2022-10-16T04:17:03;2.93;;;2.23;;
18505;SDS011;9382;53.242;10.438;2022-10-16T04:19:30;3.20;;;2.30;;
18505;SDS011;9382;53.242;10.438;2022-10-16T04:21:57;6.70;;;2.43;;
18505;SDS011;9382;53.242;10.438;2022-10-16T04:24:23;3.63;;;2.40;;
18505;SDS011;9382;53.242;10.438;2022-10-16T04:26:50;3.33;;;2.30;;
18505;SDS011;9382;53.242;10.438;2022-10-16T04:29:17;5.53;;;2.43;;
18505;SDS011;9382;53.242;10.438;2022-10-16T04:31:45;4.03;;;2.30;;
18505;SDS011;9382;53.242;10.438;2022-10-16T04:34:12;4.67;;;2.07;;
18505;SDS011;9382;53.242;10.438;2022-10-16T04:36:39;4.13;;;2.60;;
18505;SDS011;9382;53.242;10.438;2022-10-16T04:39:06;3.50;;;2.00;;
18505;SDS011;9382;53.242;10.438;2022-10-16T04:41:33;5.33;;;2.60;;
18505;SDS011;9382;53.242;10.438;2022-10-16T04:43:59;3.40;;;2.40;;
18505;SDS011;9382;53.242;10.438;2022-10-16T04:46:26;4.97;;;2.20;;
18505;SDS011;9382;53.242;10.438;2022-10-16T04:48:54;6.00;;;2.70;;
18505;SDS011;9382;53.242;10.438;2022-10-16T04:51:21;5.93;;;2.60;;
18505;SDS011;9382;53.242;10.438;2022-10-16T04:53:48;4.30;;;2.30;;
18505;SDS011;9382;53.242;10.438;2022-10-16T04:56:14;5.03;;;2.40;;
18505;SDS011;9382;53.242;10.438;2022-10-16T04:58:41;2.57;;;2.13;;
18505;SDS011;9382;53.242;10.438;2022-10-16T05:01:08;5.13;;;2.27;;
18505;SDS011;9382;53.242;10.438;2022-10-16T05:03:34;5.43;;;2.30;;
18505;SDS011;9382;53.242;10.438;2022-10-16T05:06:04;5.30;;;2.17;;
18505;SDS011;9382;53.242;10.438;2022-10-16T05:08:31;3.30;;;2.30;;
18505;SDS011;9382;53.242;10.438;2022-10-16T05:10:58;2.43;;;2.20;;
18505;SDS011;9382;53.242;10.438;2022-10-16T05:13:25;5.13;;;2.43;;
18505;SDS011;9382;53.242;10.438;2022-10-16T05:15:52;4.97;;;2.37;;
18505;SDS011;9382;53.242;10.438;2022-10-16T05:18:18;2.60;;;2.33;;
18505;SDS011;9382;53.242;10.438;2022-10-16T05:20:45;5.00;;;2.47;;
18505;SDS011;9382;53.242;10.438;2022-10-16T05:23:13;6.73;;;2.40;;
18505;SDS011;9382;53.242;10.438;2022-10-16T05:25:40;3.73;;;2.50;;
18505;SDS011;9382;53.242;10.438;2022-10-16T05:28:06;4.23;;;2.50;;
18505;SDS011;9382;53.242;10.438;2022-10-16T05:30:33;5.07;;;2.70;;
18505;SDS011;9382;53.242;10.438;2022-10-16T05:33:00;6.13;;;2.77;;
18505;SDS011;9382;53.242;10.438;2022-10-16T05:35:27;5.23;;;2.47;;
18505;SDS011;9382;53.242;10.438;2022-10-16T05:37:53;6.27;;;2.90;;
18505;SDS011;9382;53.242;10.438;2022-10-16T05:40:21;7.37;;;2.87;;
18505;SDS011;9382;53.242;10.438;2022-10-16T05:42:48;4.70;;;2.40;;
18505;SDS011;9382;53.242;10.438;2022-10-16T05:45:15;2.67;;;2.30;;
18505;SDS011;9382;53.242;10.438;2022-10-16T05:47:42;4.27;;;3.20;;
18505;SDS011;9382;53.242;10.438;2022-10-16T05:50:08;4.70;;;2.37;;
18505;SDS011;9382;53.242;10.438;2022-10-16T05:52:35;9.07;;;3.00;;
18505;SDS011;9382;53.242;10.438;2022-10-16T05:55:02;2.90;;;2.70;;
18505;SDS011;9382;53.242;10.438;2022-10-16T05:57:30;5.73;;;2.60;;
18505;SDS011;9382;53.242;10.438;2022-10-16T05:59:57;6.07;;;2.77;;
18505;SDS011;9382;53.242;10.438;2022-10-16T06:02:24;6.23;;;2.80;;
18505;SDS011;9382;53.242;10.438;2022-10-16T06:04:51;4.73;;;2.60;;
18505;SDS011;9382;53.242;10.438;2022-10-16T06:07:19;6.50;;;2.67;;
18505;SDS011;9382;53.242;10.438;2022-10-16T06:09:47;5.03;;;2.33;;
18505;SDS011;9382;53.242;10.438;2022-10-16T06:12:14;3.70;;;2.77;;
18505;SDS011;9382;53.242;10.438;2022-10-16T06:14:42;4.63;;;2.70;;
18505;SDS011;9382;53.242;10.438;2022-10-16T06:17:11;3.60;;;2.27;;
18505;SDS011;9382;53.242;10.438;2022-10-16T06:19:41;7.30;;;2.80;;
18505;SDS011;9382;53.242;10.438;2022-10-16T06:22:07;3.50;;;2.80;;
18505;SDS011;9382;53.242;10.438;2022-10-16T06:24:34;4.50;;;2.87;;
18505;SDS011;9382;53.242;10.438;2022-10-16T06:27:02;5.17;;;2.73;;
18505;SDS011;9382;53.242;10.438;2022-10-16T06:29:29;6.20;;;2.70;;
18505;SDS011;9382;53.242;10.438;2022-10-16T06:31:57;6.20;;;2.73;;
18505;SDS011;9382;53.242;10.438;2022-10-16T06:34:24;4.67;;;2.53;;
18505;SDS011;9382;53.242;10.438;2022-10-16T06:36:51;4.03;;;2.67;;
18505;SDS011;9382;53.242;10.438;2022-10-16T06:39:17;3.57;;;2.60;;
18505;SDS011;9382;53.242;10.438;2022-10-16T06:41:44;7.03;;;2.70;;
18505;SDS011;9382;53.242;10.438;2022-10-16T06:44:11;3.90;;;2.60;;
18505;SDS011;9382;53.242;10.438;2022-10-16T06:46:37;3.20;;;2.40;;
18505;SDS011;9382;53.242;10.438;2022-10-16T06:49:06;5.93;;;2.70;;
18505;SDS011;9382;53.242;10.438;2022-10-16T06:51:32;9.17;;;3.03;;
18505;SDS011;9382;53.242;10.438;2022-10-16T06:54:01;5.10;;;2.47;;
18505;SDS011;9382;53.242;10.438;2022-10-16T06:56:28;6.87;;;3.00;;
18505;SDS011;9382;53.242;10.438;2022-10-16T06:58:56;4.00;;;2.63;;
18505;SDS011;9382;53.242;10.438;2022-10-16T07:01:23;3.40;;;2.60;;
18505;SDS011;9382;53.242;10.438;2022-10-16T07:03:50;6.27;;;2.77;;
18505;SDS011;9382;53.242;10.438;2022-10-16T07:06:19;4.30;;;2.57;;
18505;SDS011;9382;53.242;10.438;2022-10-16T07:08:47;6.30;;;3.00;;
18505;SDS011;9382;53.242;10.438;2022-10-16T07:11:15;4.00;;;2.60;;
18505;SDS011;9382;53.242;10.438;2022-10-16T07:13:43;6.93;;;2.73;;
18505;SDS011;9382;53.242;10.438;2022-10-16T07:16:12;5.13;;;2.87;;
18505;SDS011;9382;53.242;10.438;2022-10-16T07:18:41;5.20;;;2.90;;
18505;SDS011;9382;53.242;10.438;2022-10-16T07:21:11;7.13;;;2.87;;
18505;SDS011;9382;53.242;10.438;2022-10-16T07:23:40;6.07;;;2.97;;
18505;SDS011;9382;53.242;10.438;2022-10-16T07:26:08;6.10;;;2.93;;
18505;SDS011;9382;53.242;10.438;2022-10-16T07:28:35;4.13;;;3.00;;
18505;SDS011;9382;53.242;10.438;2022-10-16T07:31:03;9.67;;;3.20;;
18505;SDS011;9382;53.242;10.438;2022-10-16T07:33:32;3.60;;;3.10;;
18505;SDS011;9382;53.242;10.438;2022-10-16T07:36:00;5.73;;;2.40;;
18505;SDS011;9382;53.242;10.438;2022-10-16T07:38:27;4.17;;;2.87;;
18505;SDS011;9382;53.242;10.438;2022-10-16T07:40:58;4.80;;;2.70;;
18505;SDS011;9382;53.242;10.438;2022-10-16T07:43:26;5.47;;;2.90;;
18505;SDS011;9382;53.242;10.438;2022-10-16T07:45:54;4.23;;;3.00;;
18505;SDS011;9382;53.242;10.438;2022-10-16T07:48:21;2.63;;;2.33;;
18505;SDS011;9382;53.242;10.438;2022-10-16T07:50:48;6.57;;;2.67;;
18505;SDS011;9382;53.242;10.438;2022-10-16T07:53:15;2.53;;;2.33;;
18505;SDS011;9382;53.242;10.438;2022-10-16T07:55:42;6.10;;;2.20;;
18505;SDS011;9382;53.242;10.438;2022-10-16T07:58:10;3.10;;;2.60;;
18505;SDS011;9382;53.242;10.438;2022-10-16T08:00:37;4.43;;;2.23;;
18505;SDS011;9382;53.242;10.438;2022-10-16T08:03:04;3.93;;;2.17;;
18505;SDS011;9382;53.242;10.438;2022-10-16T08:05:31;4.67;;;2.10;;
18505;SDS011;9382;53.242;10.438;2022-10-16T08:07:59;2.47;;;2.23;;
18505;SDS011;9382;53.242;10.438;2022-10-16T08:10:27;2.23;;;2.03;;
18505;SDS011;9382;53.242;10.438;2022-10-16T08:12:54;2.20;;;2.00;;
18505;SDS011;9382;53.242;10.438;2022-10-16T08:15:22;6.00;;;2.03;;
18505;SDS011;9382;53.242;10.438;2022-10-16T08:17:55;3.70;;;1.93;;
18505;SDS011;9382;53.242;10.438;2022-10-16T08:20:23;5.07;;;2.00;;
18505;SDS011;9382;53.242;10.438;2022-10-16T08:22:50;4.43;;;1.90;;
18505;SDS011;9382;53.242;10.438;2022-10-16T08:25:17;2.53;;;1.80;;
18505;SDS011;9382;53.242;10.438;2022-10-16T08:27:44;2.13;;;1.90;;
18505;SDS011;9382;53.242;10.438;2022-10-16T08:30:11;4.30;;;1.80;;
18505;SDS011;9382;53.242;10.438;2022-10-16T08:32:39;2.17;;;1.80;;
18505;SDS011;9382;53.242;10.438;2022-10-16T08:35:07;2.10;;;1.90;;
18505;SDS011;9382;53.242;10.438;2022-10-16T08:37:35;2.73;;;1.90;;
18505;SDS011;9382;53.242;10.438;2022-10-16T08:40:02;2.73;;;1.87;;
18505;SDS011;9382;53.242;10.438;2022-10-16T08:42:34;4.37;;;1.90;;
18505;SDS011;9382;53.242;10.438;2022-10-16T08:45:26;2.87;;;2.10;;
18505;SDS011;9382;53.242;10.438;2022-10-16T08:48:05;3.77;;;1.80;;
18505;SDS011;9382;53.242;10.438;2022-10-16T08:50:40;5.20;;;2.20;;
18505;SDS011;9382;53.242;10.438;2022-10-16T08:53:09;4.37;;;1.80;;
18505;SDS011;9382;53.242;10.438;2022-10-16T08:55:41;1.83;;;1.57;;
18505;SDS011;9382;53.242;10.438;2022-10-16T08:58:12;4.77;;;1.80;;
18505;SDS011;9382;53.242;10.438;2022-10-16T09:00:40;3.70;;;1.60;;
18505;SDS011;9382;53.242;10.438;2022-10-16T09:03:13;4.10;;;1.80;;
18505;SDS011;9382;53.242;10.438;2022-10-16T09:05:59;2.97;;;2.00;;
18505;SDS011;9382;53.242;10.438;2022-10-16T09:08:45;2.90;;;1.70;;
18505;SDS011;9382;53.242;10.438;2022-10-16T09:11:22;1.70;;;1.60;;
18505;SDS011;9382;53.242;10.438;2022-10-16T09:13:57;4.67;;;1.90;;
18505;SDS011;9382;53.242;10.438;2022-10-16T09:16:33;2.60;;;1.70;;
18505;SDS011;9382;53.242;10.438;2022-10-16T09:19:06;3.73;;;1.93;;
18505;SDS011;9382;53.242;10.438;2022-10-16T09:21:40;2.37;;;1.50;;
18505;SDS011;9382;53.242;10.438;2022-10-16T09:24:09;1.63;;;1.50;;
18505;SDS011;9382;53.242;10.438;2022-10-16T09:26:39;2.07;;;1.70;;
18505;SDS011;9382;53.242;10.438;2022-10-16T09:29:06;1.53;;;1.27;;
18505;SDS011;9382;53.242;10.438;2022-10-16T09:31:35;2.33;;;1.30;;
18505;SDS011;9382;53.242;10.438;2022-10-16T09:34:04;5.00;;;2.00;;
18505;SDS011;9382;53.242;10.438;2022-10-16T09:36:34;1.40;;;1.30;;
18505;SDS011;9382;53.242;10.438;2022-10-16T09:39:06;3.37;;;1.53;;
18505;SDS011;9382;53.242;10.438;2022-10-16T09:41:34;2.23;;;1.27;;
18505;SDS011;9382;53.242;10.438;2022-10-16T09:44:03;1.87;;;1.30;;
18505;SDS011;9382;53.242;10.438;2022-10-16T09:46:33;2.27;;;1.30;;
18505;SDS011;9382;53.242;10.438;2022-10-16T09:49:03;2.20;;;1.10;;
18505;SDS011;9382;53.242;10.438;2022-10-16T09:51:44;1.30;;;1.30;;
18505;SDS011;9382;53.242;10.438;2022-10-16T09:54:13;2.27;;;1.30;;
18505;SDS011;9382;53.242;10.438;2022-10-16T09:56:41;2.33;;;1.27;;
18505;SDS011;9382;53.242;10.438;2022-10-16T09:59:11;1.73;;;1.13;;
18505;SDS011;9382;53.242;10.438;2022-10-16T10:01:40;4.23;;;1.20;;
18505;SDS011;9382;53.242;10.438;2022-10-16T10:04:11;2.47;;;1.40;;
18505;SDS011;9382;53.242;10.438;2022-10-16T10:06:40;2.67;;;1.03;;
18505;SDS011;9382;53.242;10.438;2022-10-16T10:09:17;2.97;;;1.30;;
18505;SDS011;9382;53.242;10.438;2022-10-16T10:11:50;6.90;;;1.23;;
18505;SDS011;9382;53.242;10.438;2022-10-16T10:14:22;2.20;;;1.10;;
18505;SDS011;9382;53.242;10.438;2022-10-16T10:17:15;2.20;;;1.10;;
18505;SDS011;9382;53.242;10.438;2022-10-16T10:19:48;2.47;;;1.30;;
18505;SDS011;9382;53.242;10.438;2022-10-16T10:22:18;3.37;;;1.30;;
18505;SDS011;9382;53.242;10.438;2022-10-16T10:27:43;3.27;;;1.17;;
18505;SDS011;9382;53.242;10.438;2022-10-16T10:30:18;2.30;;;1.00;;
18505;SDS011;9382;53.242;10.438;2022-10-16T10:32:51;1.40;;;1.20;;
18505;SDS011;9382;53.242;10.438;2022-10-16T10:35:34;2.50;;;0.97;;
18505;SDS011;9382;53.242;10.438;2022-10-16T10:38:11;1.43;;;1.23;;
18505;SDS011;9382;53.242;10.438;2022-10-16T10:40:48;2.83;;;1.10;;
18505;SDS011;9382;53.242;10.438;2022-10-16T10:43:22;5.33;;;1.20;;
18505;SDS011;9382;53.242;10.438;2022-10-16T10:46:00;2.70;;;1.10;;
18505;SDS011;9382;53.242;10.438;2022-10-16T10:48:40;2.80;;;1.10;;
18505;SDS011;9382;53.242;10.438;2022-10-16T10:51:21;2.03;;;1.00;;
18505;SDS011;9382;53.242;10.438;2022-10-16T10:53:52;3.47;;;1.10;;
18505;SDS011;9382;53.242;10.438;2022-10-16T10:56:36;3.00;;;1.10;;
18505;SDS011;9382;53.242;10.438;2022-10-16T10:59:16;1.93;;;1.03;;
18505;SDS011;9382;53.242;10.438;2022-10-16T11:02:04;2.37;;;1.00;;
18505;SDS011;9382;53.242;10.438;2022-10-16T11:04:49;2.20;;;0.80;;
18505;SDS011;9382;53.242;10.438;2022-10-16T11:07:37;2.83;;;1.10;;
18505;SDS011;9382;53.242;10.438;2022-10-16T11:10:12;2.83;;;1.00;;
18505;SDS011;9382;53.242;10.438;2022-10-16T11:12:42;1.10;;;1.00;;
18505;SDS011;9382;53.242;10.438;2022-10-16T11:15:12;2.00;;;0.90;;
18505;SDS011;9382;53.242;10.438;2022-10-16T11:17:44;2.77;;;0.97;;
18505;SDS011;9382;53.242;10.438;2022-10-16T11:20:15;4.37;;;1.23;;
18505;SDS011;9382;53.242;10.438;2022-10-16T11:22:48;1.63;;;0.90;;
18505;SDS011;9382;53.242;10.438;2022-10-16T11:25:20;4.00;;;1.07;;
18505;SDS011;9382;53.242;10.438;2022-10-16T11:27:50;2.17;;;1.03;;
18505;SDS011;9382;53.242;10.438;2022-10-16T11:30:22;2.67;;;0.97;;
18505;SDS011;9382;53.242;10.438;2022-10-16T11:32:56;2.87;;;1.00;;
18505;SDS011;9382;53.242;10.438;2022-10-16T11:35:33;4.00;;;1.07;;
18505;SDS011;9382;53.242;10.438;2022-10-16T11:38:10;1.97;;;1.20;;
18505;SDS011;9382;53.242;10.438;2022-10-16T11:40:45;1.73;;;1.20;;
18505;SDS011;9382;53.242;10.438;2022-10-16T11:43:17;3.13;;;1.37;;
18505;SDS011;9382;53.242;10.438;2022-10-16T11:45:49;2.23;;;1.00;;
18505;SDS011;9382;53.242;10.438;2022-10-16T11:48:20;2.53;;;1.00;;
18505;SDS011;9382;53.242;10.438;2022-10-16T11:50:53;1.63;;;1.03;;
18505;SDS011;9382;53.242;10.438;2022-10-16T11:53:27;2.57;;;1.00;;
18505;SDS011;9382;53.242;10.438;2022-10-16T11:56:08;2.30;;;1.00;;
18505;SDS011;9382;53.242;10.438;2022-10-16T11:58:40;1.83;;;1.10;;
18505;SDS011;9382;53.242;10.438;2022-10-16T12:01:16;2.93;;;1.20;;
18505;SDS011;9382;53.242;10.438;2022-10-16T12:03:47;2.47;;;1.00;;
18505;SDS011;9382;53.242;10.438;2022-10-16T12:06:25;1.67;;;1.00;;
18505;SDS011;9382;53.242;10.438;2022-10-16T12:08:59;1.57;;;0.90;;
18505;SDS011;9382;53.242;10.438;2022-10-16T12:11:36;1.73;;;1.00;;
18505;SDS011;9382;53.242;10.438;2022-10-16T12:14:18;3.80;;;1.27;;
18505;SDS011;9382;53.242;10.438;2022-10-16T12:16:52;2.37;;;1.00;;
18505;SDS011;9382;53.242;10.438;2022-10-16T12:19:21;2.27;;;0.80;;
18505;SDS011;9382;53.242;10.438;2022-10-16T12:21:49;1.40;;;1.00;;
18505;SDS011;9382;53.242;10.438;2022-10-16T12:24:24;1.47;;;1.13;;
18505;SDS011;9382;53.242;10.438;2022-10-16T12:26:57;2.40;;;1.10;;
18505;SDS011;9382;53.242;10.438;2022-10-16T12:29:28;2.83;;;1.00;;
18505;SDS011;9382;53.242;10.438;2022-10-16T12:31:59;3.27;;;1.00;;
18505;SDS011;9382;53.242;10.438;2022-10-16T12:34:27;3.23;;;1.20;;
18505;SDS011;9382;53.242;10.438;2022-10-16T12:37:06;3.40;;;1.10;;
18505;SDS011;9382;53.242;10.438;2022-10-16T12:39:37;3.90;;;1.00;;
18505;SDS011;9382;53.242;10.438;2022-10-16T12:42:05;2.70;;;1.00;;
18505;SDS011;9382;53.242;10.438;2022-10-16T12:44:46;3.07;;;1.13;;
18505;SDS011;9382;53.242;10.438;2022-10-16T12:47:19;1.67;;;1.27;;
18505;SDS011;9382;53.242;10.438;2022-10-16T12:49:48;2.10;;;1.30;;
18505;SDS011;9382;53.242;10.438;2022-10-16T12:52:26;2.43;;;1.00;;
18505;SDS011;9382;53.242;10.438;2022-10-16T12:55:02;4.60;;;1.10;;
18505;SDS011;9382;53.242;10.438;2022-10-16T12:57:34;2.73;;;1.30;;
18505;SDS011;9382;53.242;10.438;2022-10-16T13:00:12;1.80;;;1.20;;
18505;SDS011;9382;53.242;10.438;2022-10-16T13:02:54;2.83;;;1.00;;
18505;SDS011;9382;53.242;10.438;2022-10-16T13:05:44;3.27;;;1.40;;
18505;SDS011;9382;53.242;10.438;2022-10-16T13:08:27;2.23;;;0.90;;
18505;SDS011;9382;53.242;10.438;2022-10-16T13:11:06;0.83;;;0.80;;
18505;SDS011;9382;53.242;10.438;2022-10-16T13:13:53;4.00;;;0.90;;
18505;SDS011;9382;53.242;10.438;2022-10-16T13:16:50;3.30;;;0.90;;
18505;SDS011;9382;53.242;10.438;2022-10-16T13:19:27;2.95;;;1.02;;
18505;SDS011;9382;53.242;10.438;2022-10-16T13:22:01;1.20;;;1.10;;
18505;SDS011;9382;53.242;10.438;2022-10-16T13:24:38;1.75;;;0.90;;
18505;SDS011;9382;53.242;10.438;2022-10-16T13:27:21;1.23;;;0.98;;
18505;SDS011;9382;53.242;10.438;2022-10-16T13:30:00;3.58;;;1.00;;
18505;SDS011;9382;53.242;10.438;2022-10-16T13:32:34;3.53;;;1.20;;
18505;SDS011;9382;53.242;10.438;2022-10-16T13:35:01;1.42;;;1.08;;
18505;SDS011;9382;53.242;10.438;2022-10-16T13:37:29;1.88;;;1.08;;
18505;SDS011;9382;53.242;10.438;2022-10-16T13:40:02;2.65;;;1.20;;
18505;SDS011;9382;53.242;10.438;2022-10-16T13:42:40;2.33;;;1.00;;
18505;SDS011;9382;53.242;10.438;2022-10-16T13:45:16;2.25;;;1.15;;
18505;SDS011;9382;53.242;10.438;2022-10-16T13:47:44;2.15;;;1.10;;
18505;SDS011;9382;53.242;10.438;2022-10-16T13:50:11;2.58;;;1.10;;
18505;SDS011;9382;53.242;10.438;2022-10-16T13:52:40;2.70;;;1.02;;
18505;SDS011;9382;53.242;10.438;2022-10-16T13:55:09;1.60;;;0.90;;
18505;SDS011;9382;53.242;10.438;2022-10-16T13:57:37;3.87;;;1.10;;
18505;SDS011;9382;53.242;10.438;2022-10-16T14:00:18;3.63;;;1.03;;
18505;SDS011;9382;53.242;10.438;2022-10-16T14:02:45;0.93;;;0.80;;
18505;SDS011;9382;53.242;10.438;2022-10-16T14:05:19;2.40;;;1.07;;
18505;SDS011;9382;53.242;10.438;2022-10-16T14:07:47;2.33;;;1.20;;
18505;SDS011;9382;53.242;10.438;2022-10-16T14:10:19;2.17;;;1.05;;
18505;SDS011;9382;53.242;10.438;2022-10-16T14:12:54;4.80;;;1.30;;
18505;SDS011;9382;53.242;10.438;2022-10-16T14:15:23;1.85;;;0.90;;
18505;SDS011;9382;53.242;10.438;2022-10-16T14:17:50;4.28;;;1.08;;
18505;SDS011;9382;53.242;10.438;2022-10-16T14:20:20;0.90;;;0.90;;
18505;SDS011;9382;53.242;10.438;2022-10-16T14:22:57;1.58;;;0.85;;
18505;SDS011;9382;53.242;10.438;2022-10-16T14:25:27;1.88;;;1.10;;
18505;SDS011;9382;53.242;10.438;2022-10-16T14:27:59;1.98;;;0.98;;
18505;SDS011;9382;53.242;10.438;2022-10-16T14:30:29;1.75;;;1.02;;
18505;SDS011;9382;53.242;10.438;2022-10-16T14:32:58;2.83;;;1.08;;
18505;SDS011;9382;53.242;10.438;2022-10-16T14:35:28;3.78;;;1.48;;
18505;SDS011;9382;53.242;10.438;2022-10-16T14:37:56;1.60;;;1.00;;
18505;SDS011;9382;53.242;10.438;2022-10-16T14:40:26;2.17;;;1.10;;
18505;SDS011;9382;53.242;10.438;2022-10-16T14:42:54;3.60;;;0.98;;
18505;SDS011;9382;53.242;10.438;2022-10-16T14:45:22;2.30;;;1.15;;
18505;SDS011;9382;53.242;10.438;2022-10-16T14:47:53;3.47;;;1.03;;
18505;SDS011;9382;53.242;10.438;2022-10-16T14:50:22;5.13;;;1.23;;
18505;SDS011;9382;53.242;10.438;2022-10-16T14:52:49;4.70;;;1.37;;
18505;SDS011;9382;53.242;10.438;2022-10-16T14:55:16;2.83;;;1.30;;
18505;SDS011;9382;53.242;10.438;2022-10-16T14:57:43;2.47;;;1.13;;
18505;SDS011;9382;53.242;10.438;2022-10-16T15:00:18;2.13;;;1.37;;
18505;SDS011;9382;53.242;10.438;2022-10-16T15:02:47;3.90;;;1.10;;
18505;SDS011;9382;53.242;10.438;2022-10-16T15:05:17;3.30;;;1.10;;
18505;SDS011;9382;53.242;10.438;2022-10-16T15:07:47;2.07;;;1.10;;
18505;SDS011;9382;53.242;10.438;2022-10-16T15:10:14;2.13;;;1.40;;